createdAt,value
2022-08-22T00:00:18.968Z,3.10
2022-08-22T00:02:59.391Z,3.10
2022-08-22T00:03:00.473Z,2.60
2022-08-22T00:03:09.034Z,2.03
2022-08-22T00:03:09.503Z,2.08
2022-08-22T00:03:42.765Z,2.92
2022-08-22T00:06:55.741Z,3.42
2022-08-22T00:10:09.581Z,2.80
2022-08-22T00:13:20.830Z,2.90
2022-08-22T00:16:31.715Z,3.30
2022-08-22T00:19:50.261Z,3.08
2022-08-22T00:23:01.784Z,3.33
2022-08-22T00:26:12.185Z,3.20
2022-08-22T00:29:22.202Z,3.22
2022-08-22T00:32:32.745Z,3.13
2022-08-22T00:35:45.288Z,2.80
2022-08-22T00:38:57.500Z,3.00
2022-08-22T00:42:37.798Z,2.95
2022-08-22T00:46:02.078Z,3.13
2022-08-22T00:49:23.306Z,2.85
2022-08-22T00:53:02.261Z,3.00
2022-08-22T00:56:46.105Z,2.75
2022-08-22T01:00:12.362Z,2.75
2022-08-22T01:03:37.041Z,2.88
2022-08-22T01:06:55.378Z,2.97
2022-08-22T01:10:14.754Z,3.05
2022-08-22T01:13:38.093Z,2.90
2022-08-22T01:17:05.686Z,2.90
2022-08-22T01:20:44.722Z,3.80
2022-08-22T01:24:24.691Z,2.83
2022-08-22T01:27:57.850Z,2.65
2022-08-22T01:31:41.753Z,3.83
2022-08-22T01:35:22.221Z,2.83
2022-08-22T01:38:47.492Z,3.13
2022-08-22T01:42:15.638Z,2.67
2022-08-22T01:45:51.087Z,3.08
2022-08-22T01:49:01.197Z,3.08
2022-08-22T01:52:18.755Z,3.15
2022-08-22T01:55:32.894Z,3.40
2022-08-22T01:58:45.409Z,4.05
2022-08-22T02:02:12.105Z,3.33
2022-08-22T02:05:28.651Z,3.17
2022-08-22T02:08:45.385Z,3.00
2022-08-22T02:11:55.777Z,3.65
2022-08-22T02:15:15.258Z,3.85
2022-08-22T02:18:28.709Z,3.50
2022-08-22T02:21:45.568Z,4.10
2022-08-22T02:25:04.442Z,4.03
2022-08-22T02:28:22.127Z,4.30
2022-08-22T02:31:37.437Z,3.83
2022-08-22T02:34:45.245Z,3.50
2022-08-22T02:37:59.907Z,3.80
2022-08-22T02:41:19.188Z,3.60
2022-08-22T02:44:29.128Z,3.40
2022-08-22T02:47:41.142Z,3.90
2022-08-22T02:50:52.552Z,3.38
2022-08-22T02:54:04.742Z,3.35
2022-08-22T02:57:16.743Z,3.13
2022-08-22T03:00:33.768Z,3.30
2022-08-22T03:03:41.585Z,3.08
2022-08-22T03:06:48.578Z,3.53
2022-08-22T03:10:04.361Z,3.63
2022-08-22T03:13:16.457Z,3.50
2022-08-22T03:16:31.369Z,4.00
2022-08-22T03:19:55.830Z,3.83
2022-08-22T03:26:17.354Z,4.53
2022-08-22T03:29:30.676Z,3.65
2022-08-22T03:32:55.877Z,3.58
2022-08-22T03:36:07.033Z,3.45
2022-08-22T03:39:20.426Z,3.10
2022-08-22T03:42:57.747Z,3.70
2022-08-22T03:46:27.600Z,3.60
2022-08-22T03:50:12.810Z,4.63
2022-08-22T03:53:41.778Z,4.30
2022-08-22T03:57:38.577Z,5.03
2022-08-22T04:01:22.083Z,4.38
2022-08-22T04:04:59.885Z,4.65
2022-08-22T04:08:45.213Z,4.28
2022-08-22T04:12:20.375Z,3.88
2022-08-22T04:15:43.713Z,4.28
2022-08-22T04:19:09.321Z,3.67
2022-08-22T04:22:30.382Z,4.63
2022-08-22T04:25:41.290Z,4.20
2022-08-22T04:28:51.372Z,4.53
2022-08-22T04:32:05.498Z,4.35
2022-08-22T04:35:15.325Z,4.18
2022-08-22T04:38:25.482Z,3.80
2022-08-22T04:41:40.125Z,4.20
2022-08-22T04:44:53.794Z,3.47
2022-08-22T04:48:03.813Z,4.15
2022-08-22T04:51:13.864Z,3.35
2022-08-22T04:54:42.438Z,3.95
2022-08-22T04:58:14.093Z,3.97
2022-08-22T05:01:21.911Z,4.20
2022-08-22T05:04:30.670Z,3.75
2022-08-22T05:07:38.944Z,3.88
2022-08-22T05:10:47.372Z,3.88
2022-08-22T05:14:00.121Z,3.88
2022-08-22T05:17:07.529Z,4.03
2022-08-22T05:20:17.621Z,4.07
2022-08-22T05:23:27.208Z,4.53
2022-08-22T05:26:36.765Z,3.53
2022-08-22T05:29:47.009Z,4.00
2022-08-22T05:32:56.486Z,4.55
2022-08-22T05:36:06.375Z,4.25
2022-08-22T05:39:15.964Z,5.18
2022-08-22T05:42:27.950Z,4.85
2022-08-22T05:45:37.065Z,3.80
2022-08-22T05:48:46.237Z,3.70
2022-08-22T05:51:59.557Z,3.65
2022-08-22T05:55:08.389Z,3.80
2022-08-22T05:58:36.307Z,3.90
2022-08-22T06:01:54.693Z,4.15
2022-08-22T06:05:02.578Z,4.40
2022-08-22T06:08:14.334Z,3.92
2022-08-22T06:11:23.753Z,3.78
2022-08-22T06:14:35.103Z,4.60
2022-08-22T06:17:46.613Z,4.65
2022-08-22T06:20:55.401Z,4.45
2022-08-22T06:24:02.760Z,4.22
2022-08-22T06:27:12.957Z,3.97
2022-08-22T06:30:20.469Z,4.30
2022-08-22T06:33:30.826Z,4.43
2022-08-22T06:36:38.984Z,4.32
2022-08-22T06:39:49.194Z,4.47
2022-08-22T06:42:55.530Z,4.30
2022-08-22T06:46:00.726Z,4.28
2022-08-22T06:49:10.746Z,4.28
2022-08-22T06:52:22.504Z,3.92
2022-08-22T06:55:30.580Z,4.32
2022-08-22T06:58:39.701Z,4.78
2022-08-22T07:01:50.755Z,4.43
2022-08-22T07:04:58.788Z,4.55
2022-08-22T07:08:09.172Z,4.53
2022-08-22T07:11:19.599Z,4.15
2022-08-22T07:14:31.237Z,4.75
2022-08-22T07:17:40.460Z,4.95
2022-08-22T07:20:55.150Z,4.82
2022-08-22T07:24:03.433Z,4.25
2022-08-22T07:27:19.695Z,4.57
2022-08-22T07:30:29.137Z,4.68
2022-08-22T07:33:44.084Z,5.45
2022-08-22T07:36:59.184Z,5.18
2022-08-22T07:40:14.305Z,6.40
2022-08-22T07:43:30.685Z,5.68
2022-08-22T07:46:39.186Z,5.32
2022-08-22T07:49:56.672Z,5.07
2022-08-22T07:53:13.472Z,5.03
2022-08-22T07:56:25.817Z,4.70
2022-08-22T07:59:33.333Z,4.28
2022-08-22T08:02:39.118Z,4.53
2022-08-22T08:05:47.218Z,4.20
2022-08-22T08:08:56.201Z,4.18
2022-08-22T08:12:02.756Z,3.97
2022-08-22T08:15:12.697Z,4.35
2022-08-22T08:18:23.446Z,4.25
2022-08-22T08:21:32.280Z,4.50
2022-08-22T08:24:44.809Z,4.18
2022-08-22T08:28:10.454Z,4.95
2022-08-22T08:31:23.125Z,4.72
2022-08-22T08:34:30.014Z,4.55
2022-08-22T08:37:43.827Z,4.63
2022-08-22T08:41:04.790Z,4.38
2022-08-22T08:44:27.186Z,4.60
2022-08-22T08:47:49.196Z,5.45
2022-08-22T08:51:15.294Z,4.13
2022-08-22T08:54:35.651Z,4.03
2022-08-22T08:57:58.814Z,4.30
2022-08-22T09:01:37.603Z,4.38
2022-08-22T09:05:12.687Z,5.07
2022-08-22T09:08:56.054Z,4.22
2022-08-22T09:12:32.516Z,4.40
2022-08-22T09:15:56.321Z,4.95
2022-08-22T09:19:52.070Z,4.72
2022-08-22T09:23:36.443Z,4.55
2022-08-22T09:26:50.853Z,4.93
2022-08-22T09:30:00.726Z,4.55
2022-08-22T09:33:16.981Z,4.88
2022-08-22T09:36:27.729Z,5.47
2022-08-22T09:39:39.083Z,5.57
2022-08-22T09:42:54.005Z,4.65
2022-08-22T09:46:13.718Z,5.85
2022-08-22T09:49:32.768Z,4.50
2022-08-22T09:52:57.643Z,4.13
2022-08-22T09:56:14.990Z,4.03
2022-08-22T09:59:31.780Z,4.55
2022-08-22T10:02:46.559Z,4.95
2022-08-22T10:06:02.060Z,4.85
2022-08-22T10:09:15.182Z,4.70
2022-08-22T10:12:35.174Z,3.88
2022-08-22T10:15:45.295Z,4.55
2022-08-22T10:19:02.909Z,3.97
2022-08-22T10:22:41.967Z,3.40
2022-08-22T10:25:56.074Z,3.80
2022-08-22T10:29:13.330Z,3.80
2022-08-22T10:32:31.717Z,4.43
2022-08-22T10:35:42.356Z,4.32
2022-08-22T10:38:54.614Z,3.60
2022-08-22T10:42:16.977Z,3.47
2022-08-22T10:45:35.724Z,3.67
2022-08-22T10:48:50.474Z,3.83
2022-08-22T10:52:09.712Z,3.40
2022-08-22T10:55:27.833Z,3.38
2022-08-22T10:58:39.199Z,3.90
2022-08-22T11:01:55.965Z,4.20
2022-08-22T11:05:26.233Z,2.67
2022-08-22T11:08:53.746Z,2.78
2022-08-22T11:12:09.154Z,2.55
2022-08-22T11:15:28.418Z,2.90
2022-08-22T11:19:14.574Z,2.72
2022-08-22T11:22:31.993Z,2.63
2022-08-22T11:25:53.667Z,2.58
2022-08-22T11:29:24.605Z,2.47
2022-08-22T11:32:40.577Z,2.33
2022-08-22T11:35:52.478Z,2.38
2022-08-22T11:39:06.568Z,2.97
2022-08-22T11:42:23.455Z,2.65
2022-08-22T11:45:38.424Z,2.38
2022-08-22T11:48:58.454Z,3.08
2022-08-22T11:52:19.652Z,2.90
2022-08-22T11:55:34.862Z,2.97
2022-08-22T11:58:51.047Z,2.20
2022-08-22T12:02:03.941Z,2.53
2022-08-22T12:05:19.683Z,2.70
2022-08-22T12:09:04.926Z,1.90
2022-08-22T12:12:26.925Z,2.22
2022-08-22T12:15:41.073Z,1.98
2022-08-22T12:18:56.869Z,1.88
2022-08-22T12:22:36.133Z,2.22
2022-08-22T12:26:03.594Z,1.98
2022-08-22T12:29:45.054Z,1.67
2022-08-22T12:33:24.210Z,2.35
2022-08-22T12:37:00.864Z,2.58
2022-08-22T12:40:26.427Z,2.20
2022-08-22T12:43:56.257Z,2.30
2022-08-22T12:47:17.294Z,2.17
2022-08-22T12:50:33.101Z,2.72
2022-08-22T12:54:00.976Z,2.20
2022-08-22T12:57:24.262Z,2.35
2022-08-22T13:00:37.184Z,1.98
2022-08-22T13:03:48.951Z,1.92
2022-08-22T13:07:19.059Z,2.20
2022-08-22T13:10:44.829Z,2.00
2022-08-22T13:13:57.321Z,2.63
2022-08-22T13:17:15.219Z,1.73
2022-08-22T13:20:37.146Z,1.50
2022-08-22T13:23:46.967Z,2.90
2022-08-22T13:27:05.790Z,2.40
2022-08-22T13:30:19.253Z,2.03
2022-08-22T13:33:28.975Z,1.60
2022-08-22T13:36:43.601Z,1.67
2022-08-22T13:40:01.901Z,2.13
2022-08-22T13:43:12.756Z,2.90
2022-08-22T13:46:28.218Z,2.30
2022-08-22T13:49:36.758Z,1.70
2022-08-22T13:52:52.283Z,1.77
2022-08-22T13:56:15.992Z,2.03
2022-08-22T13:59:49.611Z,2.25
2022-08-22T14:03:05.468Z,1.70
2022-08-22T14:06:37.403Z,2.08
2022-08-22T14:09:54.293Z,2.05
2022-08-22T14:13:40.150Z,1.50
2022-08-22T14:16:53.214Z,1.83
2022-08-22T14:20:01.533Z,1.88
2022-08-22T14:23:11.785Z,1.55
2022-08-22T14:26:32.737Z,1.98
2022-08-22T14:29:50.287Z,2.08
2022-08-22T14:33:14.366Z,2.40
2022-08-22T14:36:22.550Z,2.20
2022-08-22T14:39:34.859Z,2.13
2022-08-22T14:42:46.684Z,1.85
2022-08-22T14:46:01.827Z,1.90
2022-08-22T14:49:26.803Z,1.95
2022-08-22T14:52:40.743Z,1.85
2022-08-22T14:55:45.744Z,2.38
2022-08-22T14:58:54.841Z,2.03
2022-08-22T15:02:03.957Z,1.52
2022-08-22T15:05:24.135Z,2.10
2022-08-22T15:08:35.905Z,1.95
2022-08-22T15:11:42.410Z,1.88
2022-08-22T15:14:52.384Z,1.80
2022-08-22T15:17:58.087Z,2.13
2022-08-22T15:21:11.264Z,3.17
2022-08-22T15:24:18.101Z,1.75
2022-08-22T15:27:24.387Z,1.85
2022-08-22T15:30:44.135Z,1.90
2022-08-22T15:33:51.345Z,2.20
2022-08-22T15:37:28.520Z,1.70
2022-08-22T15:40:40.820Z,2.22
2022-08-22T15:43:50.095Z,2.10
2022-08-22T15:47:10.892Z,1.88
2022-08-22T15:50:36.011Z,1.48
2022-08-22T15:54:16.276Z,1.92
2022-08-22T15:57:35.005Z,1.80
2022-08-22T16:00:45.120Z,2.25
2022-08-22T16:03:58.707Z,1.77
2022-08-22T16:07:09.432Z,1.65
2022-08-22T16:10:30.646Z,1.70
2022-08-22T16:13:48.288Z,1.98
2022-08-22T16:17:03.900Z,1.90
2022-08-22T16:20:38.798Z,2.00
2022-08-22T16:24:14.082Z,1.90
2022-08-22T16:27:23.582Z,1.55
2022-08-22T16:30:41.961Z,1.50
2022-08-22T16:33:47.590Z,1.70
2022-08-22T16:36:54.668Z,2.08
2022-08-22T16:40:16.543Z,1.60
2022-08-22T16:43:22.806Z,2.10
2022-08-22T16:46:41.629Z,2.03
2022-08-22T16:50:03.400Z,2.15
2022-08-22T16:53:33.749Z,1.88
2022-08-22T16:56:59.150Z,1.67
2022-08-22T17:00:12.689Z,2.00
2022-08-22T17:03:26.866Z,1.85
2022-08-22T17:06:46.685Z,2.10
2022-08-22T17:10:12.397Z,2.08
2022-08-22T17:13:40.771Z,1.77
2022-08-22T17:17:01.647Z,2.00
2022-08-22T17:20:20.978Z,1.70
2022-08-22T17:23:35.027Z,2.35
2022-08-22T17:26:55.263Z,1.70
2022-08-22T17:30:07.024Z,1.90
2022-08-22T17:33:27.788Z,1.90
2022-08-22T17:36:48.900Z,1.40
2022-08-22T17:40:11.667Z,2.22
2022-08-22T17:43:49.311Z,2.20
2022-08-22T17:47:00.033Z,1.73
2022-08-22T17:50:13.267Z,5.18
2022-08-22T17:53:31.378Z,2.27
2022-08-22T17:56:46.303Z,3.45
2022-08-22T17:59:55.006Z,2.10
2022-08-22T18:03:09.145Z,2.15
2022-08-22T18:09:34.162Z,4.05
2022-08-22T18:12:47.324Z,4.85
2022-08-22T18:15:59.675Z,7.10
2022-08-22T18:19:10.872Z,6.75
2022-08-22T18:22:25.197Z,4.75
2022-08-22T18:25:41.525Z,4.68
2022-08-22T18:28:55.205Z,3.00
2022-08-22T18:32:17.239Z,5.47
2022-08-22T18:35:28.820Z,11.32
2022-08-22T18:38:38.625Z,6.43
2022-08-22T18:41:53.894Z,3.42
2022-08-22T18:45:01.642Z,2.60
2022-08-22T18:48:09.487Z,2.22
2022-08-22T18:51:24.734Z,2.15
2022-08-22T18:54:41.982Z,2.22
2022-08-22T18:58:14.446Z,8.50
2022-08-22T19:01:44.106Z,5.53
2022-08-22T19:05:23.712Z,3.20
2022-08-22T19:08:59.537Z,3.10
2022-08-22T19:12:14.624Z,3.80
2022-08-22T19:15:35.944Z,2.75
2022-08-22T19:18:46.290Z,2.63
2022-08-22T19:22:21.869Z,2.60
2022-08-22T19:25:29.065Z,2.63
2022-08-22T19:28:39.487Z,2.38
2022-08-22T19:31:51.221Z,2.63
2022-08-22T19:35:20.187Z,2.30
2022-08-22T19:38:53.438Z,2.10
2022-08-22T19:41:59.873Z,2.60
2022-08-22T19:45:09.803Z,2.25
2022-08-22T19:48:18.338Z,2.25
2022-08-22T19:51:31.290Z,2.53
2022-08-22T19:54:44.877Z,2.00
2022-08-22T19:57:57.318Z,2.58
2022-08-22T20:01:24.409Z,2.30
2022-08-22T20:04:55.513Z,2.50
2022-08-22T20:08:26.160Z,2.20
2022-08-22T20:11:45.461Z,2.30
2022-08-22T20:14:52.751Z,2.15
2022-08-22T20:18:47.252Z,2.35
2022-08-22T20:21:46.274Z,3.40
2022-08-22T20:24:56.487Z,3.58
2022-08-22T20:28:05.560Z,3.58
2022-08-22T20:31:21.419Z,3.70
2022-08-22T20:34:29.521Z,3.40
2022-08-22T20:38:05.268Z,3.50
2022-08-22T20:41:20.145Z,3.83
2022-08-22T20:44:33.232Z,3.97
2022-08-22T20:47:41.327Z,3.45
2022-08-22T20:50:47.249Z,3.30
2022-08-22T20:53:58.216Z,3.40
2022-08-22T20:57:05.283Z,3.00
2022-08-22T21:00:14.514Z,2.72
2022-08-22T21:03:42.361Z,2.28
2022-08-22T21:06:47.341Z,2.72
2022-08-22T21:10:13.711Z,2.35
2022-08-22T21:13:20.972Z,2.50
2022-08-22T21:16:34.934Z,2.88
2022-08-22T21:19:39.926Z,2.47
2022-08-22T21:22:44.989Z,3.13
2022-08-22T21:26:00.070Z,2.47
2022-08-22T21:29:08.279Z,2.88
2022-08-22T21:32:26.104Z,2.72
2022-08-22T21:35:33.102Z,2.83
2022-08-22T21:38:38.070Z,2.72
2022-08-22T21:41:51.669Z,2.38
2022-08-22T21:45:02.449Z,2.75
2022-08-22T21:48:35.283Z,2.65
2022-08-22T21:51:44.969Z,3.47
2022-08-22T21:54:49.894Z,3.00
2022-08-22T21:58:36.450Z,3.00
2022-08-22T22:01:42.760Z,3.13
2022-08-22T22:04:50.832Z,2.90
2022-08-22T22:07:55.825Z,3.00
2022-08-22T22:11:06.120Z,4.05
2022-08-22T22:14:16.216Z,4.43
2022-08-22T22:17:22.565Z,3.47
2022-08-22T22:20:28.913Z,3.65
2022-08-22T22:23:34.199Z,3.35
2022-08-22T22:26:39.144Z,3.58
2022-08-22T22:29:46.749Z,3.67
2022-08-22T22:32:52.502Z,3.58
2022-08-22T22:36:02.314Z,3.38
2022-08-22T22:39:08.302Z,3.50
2022-08-22T22:42:13.301Z,3.25
2022-08-22T22:45:20.951Z,4.03
2022-08-22T22:48:25.899Z,3.80
2022-08-22T22:51:30.906Z,3.92
2022-08-22T22:54:35.850Z,3.88
2022-08-22T22:57:42.421Z,3.97
2022-08-22T23:00:50.412Z,3.70
2022-08-22T23:03:57.782Z,5.10
2022-08-22T23:07:03.044Z,6.00
2022-08-22T23:10:10.187Z,4.25
2022-08-22T23:13:15.150Z,3.85
2022-08-22T23:16:25.849Z,4.00
2022-08-22T23:19:32.983Z,4.50
2022-08-22T23:22:38.174Z,4.20
2022-08-22T23:25:43.117Z,3.90
2022-08-22T23:28:48.115Z,4.40
2022-08-22T23:31:57.393Z,3.90
2022-08-22T23:35:02.382Z,3.92
2022-08-22T23:38:07.445Z,4.68
2022-08-22T23:41:13.809Z,5.28
2022-08-22T23:44:22.279Z,4.32
2022-08-22T23:47:29.976Z,5.03
2022-08-22T23:50:36.681Z,4.38
2022-08-22T23:53:42.019Z,4.63
2022-08-22T23:56:49.633Z,4.20
2022-08-22T23:59:57.270Z,5.30
